sensor_id;sensor_type;location;lat;lon;timestamp;pressure;altitude;pressure_sealevel;temperature;humidity
44297;BME280;51842;47.450;8.654;2022-12-29T00:00:35;95413.59;;;2.19;76.12
44297;BME280;51842;47.450;8.654;2022-12-29T00:03:01;95405.25;;;2.29;75.13
44297;BME280;51842;47.450;8.654;2022-12-29T00:05:27;95411.00;;;2.38;76.63
44297;BME280;51842;47.450;8.654;2022-12-29T00:07:53;95406.94;;;2.42;76.20
44297;BME280;51842;47.450;8.654;2022-12-29T00:10:37;95401.44;;;2.43;75.85
44297;BME280;51842;47.450;8.654;2022-12-29T00:13:02;95401.81;;;2.47;75.62
44297;BME280;51842;47.450;8.654;2022-12-29T00:15:47;95399.94;;;2.54;74.14
44297;BME280;51842;47.450;8.654;2022-12-29T00:18:13;95404.47;;;2.65;73.29
44297;BME280;51842;47.450;8.654;2022-12-29T00:20:57;95410.09;;;2.87;71.43
44297;BME280;51842;47.450;8.654;2022-12-29T00:23:41;95406.50;;;3.00;71.60
44297;BME280;51842;47.450;8.654;2022-12-29T00:26:26;95403.25;;;3.16;71.31
44297;BME280;51842;47.450;8.654;2022-12-29T00:29:10;95400.31;;;3.24;70.16
44297;BME280;51842;47.450;8.654;2022-12-29T00:31:54;95409.97;;;3.31;70.15
44297;BME280;51842;47.450;8.654;2022-12-29T00:34:38;95404.84;;;3.36;69.13
44297;BME280;51842;47.450;8.654;2022-12-29T00:37:29;95403.13;;;3.41;68.96
44297;BME280;51842;47.450;8.654;2022-12-29T00:40:13;95394.22;;;3.42;71.99
44297;BME280;51842;47.450;8.654;2022-12-29T00:43:03;95402.13;;;3.42;70.40
44297;BME280;51842;47.450;8.654;2022-12-29T00:45:50;95406.59;;;3.42;67.83
44297;BME280;51842;47.450;8.654;2022-12-29T00:48:25;95408.88;;;3.50;68.72
44297;BME280;51842;47.450;8.654;2022-12-29T00:51:09;95404.31;;;3.57;68.11
44297;BME280;51842;47.450;8.654;2022-12-29T00:53:35;95403.88;;;3.60;69.25
44297;BME280;51842;47.450;8.654;2022-12-29T00:56:01;95394.50;;;3.64;71.10
44297;BME280;51842;47.450;8.654;2022-12-29T00:58:31;95402.16;;;3.66;69.95
44297;BME280;51842;47.450;8.654;2022-12-29T01:01:08;95403.22;;;3.65;70.68
44297;BME280;51842;47.450;8.654;2022-12-29T01:03:37;95400.56;;;3.65;69.63
44297;BME280;51842;47.450;8.654;2022-12-29T01:06:09;95402.41;;;3.64;70.43
44297;BME280;51842;47.450;8.654;2022-12-29T01:08:36;95411.81;;;3.72;67.30
44297;BME280;51842;47.450;8.654;2022-12-29T01:11:10;95412.19;;;3.87;67.23
44297;BME280;51842;47.450;8.654;2022-12-29T01:13:37;95418.06;;;4.01;66.73
44297;BME280;51842;47.450;8.654;2022-12-29T01:16:10;95424.59;;;4.10;66.42
44297;BME280;51842;47.450;8.654;2022-12-29T01:18:38;95418.66;;;4.15;66.80
44297;BME280;51842;47.450;8.654;2022-12-29T01:21:07;95420.03;;;4.17;66.68
44297;BME280;51842;47.450;8.654;2022-12-29T01:23:41;95419.78;;;4.19;64.88
44297;BME280;51842;47.450;8.654;2022-12-29T01:26:17;95418.34;;;4.23;65.46
44297;BME280;51842;47.450;8.654;2022-12-29T01:28:44;95426.25;;;4.23;65.92
44297;BME280;51842;47.450;8.654;2022-12-29T01:31:12;95426.25;;;4.23;65.38
44297;BME280;51842;47.450;8.654;2022-12-29T01:33:43;95430.69;;;4.23;68.81
44297;BME280;51842;47.450;8.654;2022-12-29T01:36:14;95420.84;;;4.18;71.24
44297;BME280;51842;47.450;8.654;2022-12-29T01:38:42;95419.13;;;4.12;71.83
44297;BME280;51842;47.450;8.654;2022-12-29T01:41:12;95425.88;;;4.08;67.11
44297;BME280;51842;47.450;8.654;2022-12-29T01:43:59;95425.44;;;4.11;67.09
44297;BME280;51842;47.450;8.654;2022-12-29T01:46:48;95428.97;;;4.16;66.04
44297;BME280;51842;47.450;8.654;2022-12-29T01:49:24;95425.88;;;4.20;66.88
44297;BME280;51842;47.450;8.654;2022-12-29T01:52:05;95423.38;;;4.25;67.37
44297;BME280;51842;47.450;8.654;2022-12-29T01:54:51;95432.19;;;4.30;65.86
44297;BME280;51842;47.450;8.654;2022-12-29T01:57:29;95424.38;;;4.35;64.54
44297;BME280;51842;47.450;8.654;2022-12-29T02:00:17;95420.38;;;4.45;65.94
44297;BME280;51842;47.450;8.654;2022-12-29T02:02:52;95423.94;;;4.50;65.78
44297;BME280;51842;47.450;8.654;2022-12-29T02:08:59;95409.56;;;4.70;67.84
44297;BME280;51842;47.450;8.654;2022-12-29T02:11:33;95410.16;;;4.72;67.71
44297;BME280;51842;47.450;8.654;2022-12-29T02:14:00;95402.81;;;4.74;68.05
44297;BME280;51842;47.450;8.654;2022-12-29T02:32:37;95405.19;;;5.39;67.99
44297;BME280;51842;47.450;8.654;2022-12-29T02:35:27;95399.81;;;5.51;68.43
44297;BME280;51842;47.450;8.654;2022-12-29T02:41:38;95394.28;;;5.64;70.32
44297;BME280;51842;47.450;8.654;2022-12-29T02:44:57;95405.47;;;5.71;70.43
44297;BME280;51842;47.450;8.654;2022-12-29T02:51:11;95403.81;;;5.82;70.71
44297;BME280;51842;47.450;8.654;2022-12-29T02:53:40;95395.41;;;5.85;70.52
44297;BME280;51842;47.450;8.654;2022-12-29T02:56:25;95397.34;;;5.90;70.19
44297;BME280;51842;47.450;8.654;2022-12-29T02:58:54;95389.94;;;5.92;70.22
44297;BME280;51842;47.450;8.654;2022-12-29T03:05:10;95395.84;;;5.94;70.25
44297;BME280;51842;47.450;8.654;2022-12-29T03:08:23;95394.00;;;5.94;70.21
44297;BME280;51842;47.450;8.654;2022-12-29T03:11:09;95395.38;;;5.97;71.01
44297;BME280;51842;47.450;8.654;2022-12-29T03:14:21;95389.13;;;6.03;70.96
44297;BME280;51842;47.450;8.654;2022-12-29T03:17:56;95384.94;;;6.07;70.77
44297;BME280;51842;47.450;8.654;2022-12-29T03:21:05;95389.53;;;6.12;70.86
44297;BME280;51842;47.450;8.654;2022-12-29T03:23:30;95371.81;;;6.12;71.45
44297;BME280;51842;47.450;8.654;2022-12-29T03:26:08;95371.56;;;6.14;71.32
44297;BME280;51842;47.450;8.654;2022-12-29T03:28:51;95371.56;;;6.14;70.42
44297;BME280;51842;47.450;8.654;2022-12-29T03:31:23;95371.31;;;6.15;71.55
44297;BME280;51842;47.450;8.654;2022-12-29T03:34:00;95367.09;;;6.14;71.89
44297;BME280;51842;47.450;8.654;2022-12-29T03:37:23;95364.59;;;6.08;72.34
44297;BME280;51842;47.450;8.654;2022-12-29T03:39:55;95366.69;;;6.06;72.30
44297;BME280;51842;47.450;8.654;2022-12-29T03:42:28;95360.81;;;6.03;72.31
44297;BME280;51842;47.450;8.654;2022-12-29T03:45:05;95375.41;;;6.06;72.27
44297;BME280;51842;47.450;8.654;2022-12-29T03:47:34;95372.19;;;6.04;72.94
44297;BME280;51842;47.450;8.654;2022-12-29T03:50:00;95375.16;;;6.08;72.69
44297;BME280;51842;47.450;8.654;2022-12-29T03:52:32;95364.59;;;6.08;73.75
44297;BME280;51842;47.450;8.654;2022-12-29T03:54:58;95372.69;;;6.01;74.66
44297;BME280;51842;47.450;8.654;2022-12-29T03:57:24;95370.53;;;5.98;74.63
44297;BME280;51842;47.450;8.654;2022-12-29T03:59:50;95385.72;;;5.91;74.86
44297;BME280;51842;47.450;8.654;2022-12-29T04:02:18;95373.53;;;5.90;75.12
44297;BME280;51842;47.450;8.654;2022-12-29T04:04:50;95369.69;;;5.80;75.94
44297;BME280;51842;47.450;8.654;2022-12-29T04:07:16;95366.97;;;5.75;76.07
44297;BME280;51842;47.450;8.654;2022-12-29T04:09:41;95366.31;;;5.68;75.06
44297;BME280;51842;47.450;8.654;2022-12-29T04:12:07;95359.91;;;5.64;75.54
44297;BME280;51842;47.450;8.654;2022-12-29T04:14:36;95364.06;;;5.60;74.44
44297;BME280;51842;47.450;8.654;2022-12-29T04:17:08;95352.00;;;5.64;74.17
44297;BME280;51842;47.450;8.654;2022-12-29T04:19:33;95343.81;;;5.66;73.00
44297;BME280;51842;47.450;8.654;2022-12-29T04:22:05;95346.53;;;5.71;73.37
44297;BME280;51842;47.450;8.654;2022-12-29T04:24:31;95337.88;;;5.75;72.78
44297;BME280;51842;47.450;8.654;2022-12-29T04:27:06;95343.25;;;5.80;73.13
44297;BME280;51842;47.450;8.654;2022-12-29T04:29:32;95336.69;;;5.83;73.22
44297;BME280;51842;47.450;8.654;2022-12-29T04:31:58;95337.00;;;5.87;73.46
44297;BME280;51842;47.450;8.654;2022-12-29T04:34:27;95340.31;;;5.94;74.28
44297;BME280;51842;47.450;8.654;2022-12-29T04:36:55;95330.84;;;5.98;73.48
44297;BME280;51842;47.450;8.654;2022-12-29T04:39:21;95347.59;;;6.03;72.99
44297;BME280;51842;47.450;8.654;2022-12-29T04:41:47;95339.50;;;6.10;72.85
44297;BME280;51842;47.450;8.654;2022-12-29T04:44:13;95337.91;;;6.09;71.84
44297;BME280;51842;47.450;8.654;2022-12-29T04:46:45;95338.97;;;6.08;71.75
44297;BME280;51842;47.450;8.654;2022-12-29T04:49:11;95333.28;;;5.99;66.18
44297;BME280;51842;47.450;8.654;2022-12-29T04:51:37;95332.13;;;5.95;66.02
44297;BME280;51842;47.450;8.654;2022-12-29T04:54:05;95332.97;;;5.96;64.10
44297;BME280;51842;47.450;8.654;2022-12-29T04:56:32;95319.88;;;5.89;63.36
44297;BME280;51842;47.450;8.654;2022-12-29T04:59:00;95327.81;;;5.89;62.81
44297;BME280;51842;47.450;8.654;2022-12-29T05:01:26;95323.06;;;5.91;62.82
44297;BME280;51842;47.450;8.654;2022-12-29T05:03:55;95332.63;;;5.92;63.61
44297;BME280;51842;47.450;8.654;2022-12-29T05:06:27;95332.63;;;5.92;62.59
44297;BME280;51842;47.450;8.654;2022-12-29T05:09:05;95335.03;;;5.94;64.10
44297;BME280;51842;47.450;8.654;2022-12-29T05:11:36;95325.97;;;5.90;64.95
44297;BME280;51842;47.450;8.654;2022-12-29T05:14:11;95329.41;;;5.90;63.25
44297;BME280;51842;47.450;8.654;2022-12-29T05:16:36;95320.75;;;5.95;63.91
44297;BME280;51842;47.450;8.654;2022-12-29T05:19:02;95340.31;;;5.94;63.00
44297;BME280;51842;47.450;8.654;2022-12-29T05:21:28;95332.78;;;6.02;62.45
44297;BME280;51842;47.450;8.654;2022-12-29T05:23:54;95337.13;;;6.09;61.79
44297;BME280;51842;47.450;8.654;2022-12-29T05:26:20;95339.50;;;6.10;61.62
44297;BME280;51842;47.450;8.654;2022-12-29T05:28:46;95343.78;;;6.11;61.21
44297;BME280;51842;47.450;8.654;2022-12-29T05:31:12;95332.84;;;6.08;62.44
44297;BME280;51842;47.450;8.654;2022-12-29T05:33:40;95334.38;;;6.03;60.22
44297;BME280;51842;47.450;8.654;2022-12-29T05:36:10;95335.19;;;6.04;61.66
44297;BME280;51842;47.450;8.654;2022-12-29T05:38:36;95329.09;;;6.03;61.19
44297;BME280;51842;47.450;8.654;2022-12-29T05:41:12;95327.25;;;6.04;61.97
44297;BME280;51842;47.450;8.654;2022-12-29T05:43:38;95340.72;;;6.02;62.74
44297;BME280;51842;47.450;8.654;2022-12-29T05:46:04;95344.06;;;5.98;62.28
44297;BME280;51842;47.450;8.654;2022-12-29T05:48:30;95345.69;;;5.99;62.60
44297;BME280;51842;47.450;8.654;2022-12-29T05:51:08;95343.59;;;6.01;63.00
44297;BME280;51842;47.450;8.654;2022-12-29T05:53:37;95343.38;;;6.02;64.34
44297;BME280;51842;47.450;8.654;2022-12-29T05:56:06;95347.88;;;6.02;63.90
44297;BME280;51842;47.450;8.654;2022-12-29T05:58:35;95353.94;;;6.02;63.12
44297;BME280;51842;47.450;8.654;2022-12-29T06:01:07;95352.41;;;6.07;63.03
44297;BME280;51842;47.450;8.654;2022-12-29T06:03:33;95357.53;;;6.13;62.54
44297;BME280;51842;47.450;8.654;2022-12-29T06:06:02;95365.31;;;6.20;61.71
44297;BME280;51842;47.450;8.654;2022-12-29T06:08:31;95358.50;;;6.24;61.72
44297;BME280;51842;47.450;8.654;2022-12-29T06:10:57;95355.59;;;6.25;61.32
44297;BME280;51842;47.450;8.654;2022-12-29T06:13:25;95346.69;;;6.32;60.52
44297;BME280;51842;47.450;8.654;2022-12-29T06:15:53;95352.88;;;6.37;61.63
44297;BME280;51842;47.450;8.654;2022-12-29T06:18:21;95353.75;;;6.43;61.02
44297;BME280;51842;47.450;8.654;2022-12-29T06:20:48;95353.09;;;6.53;60.66
44297;BME280;51842;47.450;8.654;2022-12-29T06:23:13;95359.00;;;6.60;62.08
44297;BME280;51842;47.450;8.654;2022-12-29T06:25:39;95361.47;;;6.66;62.08
44297;BME280;51842;47.450;8.654;2022-12-29T06:28:05;95357.03;;;6.72;63.58
44297;BME280;51842;47.450;8.654;2022-12-29T06:30:38;95362.41;;;6.77;63.18
44297;BME280;51842;47.450;8.654;2022-12-29T06:33:06;95358.44;;;6.80;62.86
44297;BME280;51842;47.450;8.654;2022-12-29T06:35:36;95352.13;;;6.81;64.14
44297;BME280;51842;47.450;8.654;2022-12-29T06:38:07;95359.00;;;6.82;65.22
44297;BME280;51842;47.450;8.654;2022-12-29T06:40:33;95359.09;;;6.87;65.89
44297;BME280;51842;47.450;8.654;2022-12-29T06:43:02;95360.47;;;6.94;65.94
44297;BME280;51842;47.450;8.654;2022-12-29T06:45:28;95361.53;;;6.93;65.84
44297;BME280;51842;47.450;8.654;2022-12-29T06:47:54;95364.72;;;6.95;67.05
44297;BME280;51842;47.450;8.654;2022-12-29T06:50:19;95357.16;;;7.04;66.32
44297;BME280;51842;47.450;8.654;2022-12-29T06:52:45;95364.31;;;7.04;67.26
44297;BME280;51842;47.450;8.654;2022-12-29T06:55:15;95360.94;;;7.08;69.72
44297;BME280;51842;47.450;8.654;2022-12-29T06:57:41;95354.81;;;7.08;70.65
44297;BME280;51842;47.450;8.654;2022-12-29T07:00:11;95363.13;;;7.16;69.95
44297;BME280;51842;47.450;8.654;2022-12-29T07:02:37;95366.56;;;7.17;68.87
44297;BME280;51842;47.450;8.654;2022-12-29T07:05:05;95369.47;;;7.15;69.05
44297;BME280;51842;47.450;8.654;2022-12-29T07:07:35;95365.28;;;7.19;70.94
44297;BME280;51842;47.450;8.654;2022-12-29T07:10:05;95372.78;;;7.28;72.27
44297;BME280;51842;47.450;8.654;2022-12-29T07:12:33;95362.84;;;7.40;72.75
44297;BME280;51842;47.450;8.654;2022-12-29T07:14:59;95354.16;;;7.45;72.42
44297;BME280;51842;47.450;8.654;2022-12-29T07:17:25;95358.44;;;7.51;72.87
44297;BME280;51842;47.450;8.654;2022-12-29T07:19:54;95368.06;;;7.57;72.77
44297;BME280;51842;47.450;8.654;2022-12-29T07:22:19;95360.16;;;7.62;72.37
44297;BME280;51842;47.450;8.654;2022-12-29T07:24:45;95362.53;;;7.63;72.11
44297;BME280;51842;47.450;8.654;2022-12-29T07:27:11;95371.34;;;7.69;72.29
44297;BME280;51842;47.450;8.654;2022-12-29T07:29:38;95367.41;;;7.72;72.25
44297;BME280;51842;47.450;8.654;2022-12-29T07:32:06;95375.16;;;7.78;72.24
44297;BME280;51842;47.450;8.654;2022-12-29T07:34:32;95366.13;;;7.79;72.46
44297;BME280;51842;47.450;8.654;2022-12-29T07:37:06;95370.41;;;7.80;72.70
44297;BME280;51842;47.450;8.654;2022-12-29T07:39:32;95362.63;;;7.74;72.61
44297;BME280;51842;47.450;8.654;2022-12-29T07:41:58;95354.16;;;7.72;72.37
44297;BME280;51842;47.450;8.654;2022-12-29T07:44:33;95357.66;;;7.77;72.19
44297;BME280;51842;47.450;8.654;2022-12-29T07:46:59;95358.44;;;7.78;70.95
44297;BME280;51842;47.450;8.654;2022-12-29T07:49:25;95366.69;;;7.81;71.40
44297;BME280;51842;47.450;8.654;2022-12-29T07:51:51;95365.09;;;7.80;71.49
44297;BME280;51842;47.450;8.654;2022-12-29T07:54:20;95375.38;;;7.77;71.94
44297;BME280;51842;47.450;8.654;2022-12-29T07:56:47;95375.66;;;7.75;72.11
44297;BME280;51842;47.450;8.654;2022-12-29T07:59:13;95371.44;;;7.79;72.31
44297;BME280;51842;47.450;8.654;2022-12-29T08:01:41;95360.59;;;7.81;71.87
44297;BME280;51842;47.450;8.654;2022-12-29T08:04:10;95353.16;;;7.83;70.90
44297;BME280;51842;47.450;8.654;2022-12-29T08:06:41;95354.81;;;7.89;71.22
44297;BME280;51842;47.450;8.654;2022-12-29T08:09:09;95362.53;;;7.91;71.24
44297;BME280;51842;47.450;8.654;2022-12-29T08:11:35;95373.66;;;7.87;71.13
44297;BME280;51842;47.450;8.654;2022-12-29T08:14:02;95370.72;;;7.89;70.11
44297;BME280;51842;47.450;8.654;2022-12-29T08:16:30;95374.78;;;7.97;70.12
44297;BME280;51842;47.450;8.654;2022-12-29T08:18:59;95371.91;;;8.03;69.10
44297;BME280;51842;47.450;8.654;2022-12-29T08:21:28;95378.06;;;8.09;69.92
44297;BME280;51842;47.450;8.654;2022-12-29T08:23:57;95373.56;;;8.09;69.26
44297;BME280;51842;47.450;8.654;2022-12-29T08:26:23;95373.00;;;8.07;69.75
44297;BME280;51842;47.450;8.654;2022-12-29T08:28:48;95374.06;;;8.06;68.89
44297;BME280;51842;47.450;8.654;2022-12-29T08:31:17;95375.66;;;8.07;68.99
44297;BME280;51842;47.450;8.654;2022-12-29T08:33:43;95385.75;;;8.10;68.46
44297;BME280;51842;47.450;8.654;2022-12-29T08:36:09;95376.78;;;8.17;67.52
44297;BME280;51842;47.450;8.654;2022-12-29T08:38:35;95383.72;;;8.23;67.78
44297;BME280;51842;47.450;8.654;2022-12-29T08:41:03;95388.81;;;8.24;67.65
44297;BME280;51842;47.450;8.654;2022-12-29T08:43:30;95389.03;;;8.23;66.78
44297;BME280;51842;47.450;8.654;2022-12-29T08:45:58;95390.63;;;8.24;65.93
44297;BME280;51842;47.450;8.654;2022-12-29T08:48:27;95400.16;;;8.20;65.63
44297;BME280;51842;47.450;8.654;2022-12-29T08:50:53;95391.69;;;8.23;64.73
44297;BME280;51842;47.450;8.654;2022-12-29T08:53:21;95395.19;;;8.28;64.58
44297;BME280;51842;47.450;8.654;2022-12-29T08:55:56;95398.63;;;8.29;64.87
44297;BME280;51842;47.450;8.654;2022-12-29T08:58:23;95401.28;;;8.29;64.01
44297;BME280;51842;47.450;8.654;2022-12-29T09:00:49;95399.19;;;8.31;64.48
44297;BME280;51842;47.450;8.654;2022-12-29T09:03:15;95403.72;;;8.35;64.73
44297;BME280;51842;47.450;8.654;2022-12-29T09:05:43;95408.47;;;8.33;64.16
44297;BME280;51842;47.450;8.654;2022-12-29T09:08:08;95411.66;;;8.30;63.99
44297;BME280;51842;47.450;8.654;2022-12-29T09:10:37;95409.25;;;8.29;61.98
44297;BME280;51842;47.450;8.654;2022-12-29T09:13:03;95415.13;;;8.31;60.46
44297;BME280;51842;47.450;8.654;2022-12-29T09:15:29;95417.47;;;8.27;57.50
44297;BME280;51842;47.450;8.654;2022-12-29T09:17:58;95413.56;;;8.35;59.58
44297;BME280;51842;47.450;8.654;2022-12-29T09:20:23;95412.06;;;8.44;57.65
44297;BME280;51842;47.450;8.654;2022-12-29T09:22:49;95412.91;;;8.55;57.08
44297;BME280;51842;47.450;8.654;2022-12-29T09:25:16;95431.31;;;8.67;56.32
44297;BME280;51842;47.450;8.654;2022-12-29T09:27:43;95438.53;;;8.71;54.39
44297;BME280;51842;47.450;8.654;2022-12-29T09:30:16;95433.28;;;8.82;52.86
44297;BME280;51842;47.450;8.654;2022-12-29T09:32:42;95429.31;;;8.84;54.62
44297;BME280;51842;47.450;8.654;2022-12-29T09:35:08;95418.69;;;8.84;53.88
44297;BME280;51842;47.450;8.654;2022-12-29T09:37:34;95412.34;;;8.90;56.25
44297;BME280;51842;47.450;8.654;2022-12-29T09:40:00;95413.66;;;8.93;54.21
44297;BME280;51842;47.450;8.654;2022-12-29T09:42:41;95414.72;;;8.92;54.14
44297;BME280;51842;47.450;8.654;2022-12-29T09:48:22;95415.00;;;8.95;56.23
44297;BME280;51842;47.450;8.654;2022-12-29T09:50:58;95421.19;;;9.06;56.71
44297;BME280;51842;47.450;8.654;2022-12-29T09:53:40;95420.69;;;9.14;55.50
44297;BME280;51842;47.450;8.654;2022-12-29T09:56:23;95422.06;;;9.27;54.58
44297;BME280;51842;47.450;8.654;2022-12-29T09:59:17;95431.72;;;9.43;54.75
44297;BME280;51842;47.450;8.654;2022-12-29T10:04:45;95426.44;;;9.54;54.42
44297;BME280;51842;47.450;8.654;2022-12-29T10:25:58;95388.25;;;10.41;55.93
44297;BME280;51842;47.450;8.654;2022-12-29T10:28:58;95387.94;;;10.69;57.39
44297;BME280;51842;47.450;8.654;2022-12-29T10:35:19;95379.25;;;11.18;55.36
44297;BME280;51842;47.450;8.654;2022-12-29T10:41:28;95375.25;;;11.15;57.65
44297;BME280;51842;47.450;8.654;2022-12-29T10:44:01;95370.50;;;11.07;56.72
44297;BME280;51842;47.450;8.654;2022-12-29T10:46:38;95372.44;;;10.86;58.01
44297;BME280;51842;47.450;8.654;2022-12-29T10:49:16;95358.56;;;10.84;58.25
44297;BME280;51842;47.450;8.654;2022-12-29T10:51:47;95358.81;;;10.93;57.07
44297;BME280;51842;47.450;8.654;2022-12-29T10:54:49;95353.44;;;11.08;56.86
44297;BME280;51842;47.450;8.654;2022-12-29T10:57:28;95363.31;;;11.02;56.10
44297;BME280;51842;47.450;8.654;2022-12-29T10:59:57;95361.56;;;10.72;57.98
44297;BME280;51842;47.450;8.654;2022-12-29T11:02:47;95366.06;;;10.72;58.31
44297;BME280;51842;47.450;8.654;2022-12-29T11:05:29;95368.97;;;10.80;58.73
44297;BME280;51842;47.450;8.654;2022-12-29T11:08:10;95368.72;;;10.77;59.56
44297;BME280;51842;47.450;8.654;2022-12-29T11:10:41;95373.56;;;10.70;59.41
44297;BME280;51842;47.450;8.654;2022-12-29T11:13:25;95370.31;;;10.88;58.93
44297;BME280;51842;47.450;8.654;2022-12-29T11:15:52;95362.78;;;11.05;60.72
44297;BME280;51842;47.450;8.654;2022-12-29T11:18:38;95356.94;;;11.03;59.25
44297;BME280;51842;47.450;8.654;2022-12-29T11:21:37;95353.16;;;11.15;58.71
44297;BME280;51842;47.450;8.654;2022-12-29T11:24:32;95350.78;;;11.08;60.33
44297;BME280;51842;47.450;8.654;2022-12-29T11:27:25;95343.53;;;11.19;57.78
44297;BME280;51842;47.450;8.654;2022-12-29T11:29:57;95349.38;;;11.21;59.12
44297;BME280;51842;47.450;8.654;2022-12-29T11:32:28;95340.59;;;11.20;59.22
44297;BME280;51842;47.450;8.654;2022-12-29T11:34:59;95342.25;;;11.06;60.37
44297;BME280;51842;47.450;8.654;2022-12-29T11:37:41;95338.34;;;10.88;61.08
44297;BME280;51842;47.450;8.654;2022-12-29T11:40:21;95339.66;;;10.85;60.17
44297;BME280;51842;47.450;8.654;2022-12-29T11:50:37;95309.38;;;10.66;61.55
44297;BME280;51842;47.450;8.654;2022-12-29T11:53:52;95305.38;;;10.58;62.50
44297;BME280;51842;47.450;8.654;2022-12-29T11:56:42;95314.72;;;10.51;63.63
44297;BME280;51842;47.450;8.654;2022-12-29T11:59:39;95329.38;;;10.53;62.52
44297;BME280;51842;47.450;8.654;2022-12-29T12:08:38;95307.25;;;10.58;62.62
44297;BME280;51842;47.450;8.654;2022-12-29T12:11:43;95300.34;;;10.57;62.48
44297;BME280;51842;47.450;8.654;2022-12-29T12:14:38;95292.88;;;10.54;62.57
44297;BME280;51842;47.450;8.654;2022-12-29T12:17:25;95293.69;;;10.59;63.85
44297;BME280;51842;47.450;8.654;2022-12-29T12:26:12;95281.41;;;10.63;63.55
44297;BME280;51842;47.450;8.654;2022-12-29T12:32:30;95281.16;;;10.60;64.71
44297;BME280;51842;47.450;8.654;2022-12-29T12:35:03;95276.06;;;10.69;64.96
44297;BME280;51842;47.450;8.654;2022-12-29T12:57:48;95267.44;;;10.87;64.51
44297;BME280;51842;47.450;8.654;2022-12-29T13:00:20;95263.38;;;11.00;64.40
44297;BME280;51842;47.450;8.654;2022-12-29T13:13:09;95241.72;;;11.17;63.39
44297;BME280;51842;47.450;8.654;2022-12-29T13:18:46;95234.84;;;11.05;63.20
44297;BME280;51842;47.450;8.654;2022-12-29T13:31:43;95251.75;;;10.80;65.30
44297;BME280;51842;47.450;8.654;2022-12-29T13:34:44;95256.28;;;10.80;65.31
44297;BME280;51842;47.450;8.654;2022-12-29T13:37:23;95249.69;;;10.72;66.81
44297;BME280;51842;47.450;8.654;2022-12-29T13:40:28;95250.72;;;10.71;68.28
44297;BME280;51842;47.450;8.654;2022-12-29T13:43:07;95247.56;;;10.64;70.21
44297;BME280;51842;47.450;8.654;2022-12-29T13:45:36;95260.09;;;10.63;70.18
44297;BME280;51842;47.450;8.654;2022-12-29T13:48:23;95253.72;;;10.59;70.66
44297;BME280;51842;47.450;8.654;2022-12-29T13:50:58;95265.75;;;10.47;70.52
44297;BME280;51842;47.450;8.654;2022-12-29T13:57:31;95248.19;;;10.40;69.36
44297;BME280;51842;47.450;8.654;2022-12-29T14:00:18;95239.13;;;10.41;68.58
44297;BME280;51842;47.450;8.654;2022-12-29T14:07:45;95254.56;;;10.24;68.63
44297;BME280;51842;47.450;8.654;2022-12-29T14:10:52;95266.84;;;10.35;69.54
44297;BME280;51842;47.450;8.654;2022-12-29T14:13:25;95270.84;;;10.28;69.77
44297;BME280;51842;47.450;8.654;2022-12-29T14:16:03;95267.91;;;10.19;69.46
44297;BME280;51842;47.450;8.654;2022-12-29T14:18:44;95273.75;;;10.21;69.14
44297;BME280;51842;47.450;8.654;2022-12-29T14:23:47;95270.28;;;10.31;69.40
44297;BME280;51842;47.450;8.654;2022-12-29T14:29:39;95279.34;;;10.30;69.52
44297;BME280;51842;47.450;8.654;2022-12-29T14:32:02;95264.72;;;10.32;69.51
44297;BME280;51842;47.450;8.654;2022-12-29T14:34:44;95278.56;;;10.29;70.74
44297;BME280;51842;47.450;8.654;2022-12-29T14:37:33;95266.59;;;10.22;70.74
44297;BME280;51842;47.450;8.654;2022-12-29T14:40:25;95270.84;;;10.17;70.74
44297;BME280;51842;47.450;8.654;2022-12-29T14:42:57;95270.84;;;10.12;71.91
44297;BME280;51842;47.450;8.654;2022-12-29T14:45:30;95284.94;;;10.08;71.69
44297;BME280;51842;47.450;8.654;2022-12-29T14:47:59;95288.94;;;10.05;72.65
44297;BME280;51842;47.450;8.654;2022-12-29T14:50:45;95283.38;;;10.02;72.49
44297;BME280;51842;47.450;8.654;2022-12-29T14:57:06;95287.34;;;9.99;72.90
44297;BME280;51842;47.450;8.654;2022-12-29T14:59:35;95284.94;;;10.03;71.18
44297;BME280;51842;47.450;8.654;2022-12-29T15:02:19;95280.44;;;9.93;70.45
44297;BME280;51842;47.450;8.654;2022-12-29T15:04:47;95284.97;;;9.92;71.18
44297;BME280;51842;47.450;8.654;2022-12-29T15:07:15;95293.22;;;9.91;70.84
44297;BME280;51842;47.450;8.654;2022-12-29T15:09:53;95303.34;;;9.94;71.49
44297;BME280;51842;47.450;8.654;2022-12-29T15:12:41;95309.19;;;9.91;70.81
44297;BME280;51842;47.450;8.654;2022-12-29T15:15:36;95307.06;;;9.88;71.35
44297;BME280;51842;47.450;8.654;2022-12-29T15:18:32;95304.66;;;9.76;70.87
44297;BME280;51842;47.450;8.654;2022-12-29T15:21:15;95300.41;;;9.75;72.22
44297;BME280;51842;47.450;8.654;2022-12-29T15:23:45;95313.44;;;9.66;72.45
44297;BME280;51842;47.450;8.654;2022-12-29T15:26:13;95306.50;;;9.60;73.90
44297;BME280;51842;47.450;8.654;2022-12-29T15:28:49;95303.03;;;9.55;75.73
44297;BME280;51842;47.450;8.654;2022-12-29T15:31:25;95301.44;;;9.48;76.49
44297;BME280;51842;47.450;8.654;2022-12-29T15:34:01;95304.63;;;9.45;79.78
44297;BME280;51842;47.450;8.654;2022-12-29T15:36:38;95301.16;;;9.45;79.18
44297;BME280;51842;47.450;8.654;2022-12-29T15:39:29;95312.34;;;9.42;79.21
44297;BME280;51842;47.450;8.654;2022-12-29T15:44:55;95317.88;;;9.30;82.95
44297;BME280;51842;47.450;8.654;2022-12-29T15:47:29;95312.00;;;9.18;85.04
44297;BME280;51842;47.450;8.654;2022-12-29T15:52:41;95315.41;;;8.98;87.82
44297;BME280;51842;47.450;8.654;2022-12-29T15:55:43;95312.72;;;8.93;88.24
44297;BME280;51842;47.450;8.654;2022-12-29T15:58:27;95312.16;;;8.86;88.94
44297;BME280;51842;47.450;8.654;2022-12-29T16:01:01;95312.97;;;8.81;90.37
44297;BME280;51842;47.450;8.654;2022-12-29T16:03:36;95321.97;;;8.80;89.97
44297;BME280;51842;47.450;8.654;2022-12-29T16:09:19;95324.03;;;8.63;91.64
44297;BME280;51842;47.450;8.654;2022-12-29T16:12:06;95327.72;;;8.62;91.88
44297;BME280;51842;47.450;8.654;2022-12-29T16:14:51;95319.22;;;8.60;92.40
44297;BME280;51842;47.450;8.654;2022-12-29T16:17:30;95328.97;;;8.49;92.91
44297;BME280;51842;47.450;8.654;2022-12-29T16:20:04;95330.06;;;8.48;93.09
44297;BME280;51842;47.450;8.654;2022-12-29T16:22:48;95333.22;;;8.45;93.03